Time;durP1;ratioP1;P1;durP2;ratioP2;P2;SDS_P1;SDS_P2;PMS_P1;PMS_P2;Temp;Humidity;BMP_temperature;BMP_pressure;BME280_temperature;BME280_humidity;BME280_pressure;Samples;Min_cycle;Max_cycle;Signal;HPM_P1;HPM_P2
2022/09/04 00:02:20;;;;;;;5.43;1.80;;;;;;;17.11;45.76;101202.81;5051258;28;20041;-80
2022/09/04 00:05:01;;;;;;;4.65;1.27;;;;;;;17.07;46.33;101201.34;5024279;28;20441;-79
2022/09/04 00:07:52;;;;;;;5.68;1.70;;;;;;;17.07;46.14;101196.03;5050295;28;20104;-80
2022/09/04 00:10:28;;;;;;;4.63;1.48;;;;;;;17.06;46.05;101199.63;5077909;28;20067;-79
2022/09/04 00:13:20;;;;;;;3.95;1.52;;;;;;;17.06;46.73;101201.47;5068349;28;20052;-79
2022/09/04 00:16:06;;;;;;;2.45;1.20;;;;;;;17.06;45.89;101201.47;5049545;28;20052;-80
2022/09/04 00:18:41;;;;;;;2.58;1.42;;;;;;;17.02;45.97;101198.22;5075261;28;20064;-80
2022/09/04 00:21:34;;;;;;;7.10;1.38;;;;;;;16.99;46.48;101193.13;5042093;28;20139;-79
2022/09/04 00:24:03;;;;;;;4.47;1.38;;;;;;;16.95;46.35;101202.28;5046384;28;20048;-80
2022/09/04 00:26:49;;;;;;;3.40;1.70;;;;;;;16.92;46.31;101197.19;5055762;28;20120;-80
2022/09/04 00:29:19;;;;;;;3.53;1.30;;;;;;;16.93;46.43;101189.13;5062425;28;20055;-78
2022/09/04 00:31:55;;;;;;;4.05;1.10;;;;;;;16.94;46.19;101196.13;5045232;28;20044;-80
2022/09/04 00:34:51;;;;;;;2.53;1.30;;;;;;;16.91;46.28;101198.16;5053176;28;20075;-79
2022/09/04 00:37:23;;;;;;;3.88;1.20;;;;;;;16.86;46.73;101195.03;5051923;28;20040;-79
2022/09/04 00:39:59;;;;;;;8.15;1.40;;;;;;;16.83;47.02;101198.75;5055083;28;20108;-79
2022/09/04 00:43:05;;;;;;;2.13;1.10;;;;;;;16.75;47.15;101206.47;5063708;28;20087;-79
2022/09/04 00:45:49;;;;;;;2.78;1.05;;;;;;;16.69;47.41;101207.72;5055461;28;20053;-79
2022/09/04 00:48:45;;;;;;;2.25;1.42;;;;;;;16.74;47.53;101207.41;5026739;28;20055;-80
2022/09/04 00:51:46;;;;;;;1.95;1.23;;;;;;;16.73;47.33;101207.53;5042957;28;20346;-78
2022/09/04 00:54:22;;;;;;;3.00;1.23;;;;;;;16.67;48.11;101207.00;5082876;28;20082;-79
2022/09/04 00:57:18;;;;;;;2.38;1.27;;;;;;;16.52;48.59;101216.13;5068839;28;20052;-79
2022/09/04 01:00:07;;;;;;;2.30;1.30;;;;;;;16.50;48.69;101212.75;5059939;28;20041;-80
2022/09/04 01:02:59;;;;;;;2.20;0.93;;;;;;;16.50;48.20;101211.91;5050978;28;20068;-79
2022/09/04 01:05:44;;;;;;;5.40;1.10;;;;;;;16.48;48.23;101213.81;5079857;28;20060;-80
2022/09/04 01:08:26;;;;;;;2.08;1.05;;;;;;;16.43;48.18;101220.31;5062549;28;20068;-79
2022/09/04 01:11:31;;;;;;;4.65;1.25;;;;;;;16.49;48.81;101228.81;5083294;28;20053;-79
2022/09/04 01:14:43;;;;;;;2.88;1.50;;;;;;;16.42;49.04;101226.59;5056388;28;20109;-80
2022/09/04 01:17:31;;;;;;;5.10;1.00;;;;;;;16.33;48.96;101224.63;5030582;28;20064;-80
2022/09/04 01:20:13;;;;;;;5.25;1.27;;;;;;;16.34;48.20;101236.09;5042506;28;20066;-81
2022/09/04 01:23:06;;;;;;;5.38;1.42;;;;;;;16.35;48.72;101235.16;5072570;28;20072;-79
2022/09/04 01:26:10;;;;;;;4.50;1.25;;;;;;;16.34;48.97;101236.09;5018585;28;20052;-79
2022/09/04 01:29:12;;;;;;;4.25;1.25;;;;;;;16.26;49.31;101234.00;5057627;28;20063;-79
2022/09/04 01:31:46;;;;;;;2.97;1.15;;;;;;;16.30;48.89;101234.63;5038128;28;20595;-80
2022/09/04 01:34:40;;;;;;;8.23;1.33;;;;;;;16.19;49.96;101227.44;5065032;28;20062;-79
2022/09/04 01:38:09;;;;;;;2.17;1.13;;;;;;;16.16;49.45;101235.63;5084866;28;20048;-80
2022/09/04 01:40:59;;;;;;;2.67;1.17;;;;;;;16.15;49.63;101234.78;5027510;28;20101;-78
2022/09/04 01:43:26;;;;;;;3.85;1.10;;;;;;;16.13;50.10;101235.88;5023666;28;20049;-80
2022/09/04 01:46:21;;;;;;;3.88;1.25;;;;;;;16.07;49.89;101231.81;5036762;28;20067;-80
2022/09/04 01:49:18;;;;;;;2.08;1.10;;;;;;;16.10;49.22;101225.44;5042105;28;20051;-80
2022/09/04 01:52:06;;;;;;;6.38;1.17;;;;;;;16.15;48.98;101228.63;5065765;28;20590;-80
2022/09/04 01:54:55;;;;;;;3.70;1.33;;;;;;;16.16;48.73;101227.66;5061604;28;20159;-78
2022/09/04 01:57:45;;;;;;;1.95;1.23;;;;;;;16.18;48.33;101229.25;5056707;28;20028;-78
2022/09/04 02:00:16;;;;;;;1.60;1.10;;;;;;;16.15;49.25;101237.44;5056594;28;20121;-79
2022/09/04 02:03:09;;;;;;;3.22;1.38;;;;;;;16.11;49.19;101229.78;5033992;28;20037;-79
2022/09/04 02:05:44;;;;;;;2.67;0.98;;;;;;;16.14;48.88;101232.25;5058412;28;20053;-78
2022/09/04 02:08:30;;;;;;;4.97;1.00;;;;;;;16.09;49.81;101232.56;5042161;28;20055;-79
2022/09/04 02:11:14;;;;;;;3.17;1.08;;;;;;;16.03;49.73;101229.50;5048108;28;20079;-79
2022/09/04 02:14:08;;;;;;;4.18;1.50;;;;;;;15.97;49.78;101227.28;5072934;28;20746;-80
2022/09/04 02:17:17;;;;;;;6.47;1.23;;;;;;;15.99;48.90;101230.72;5070840;28;20036;-79
2022/09/04 02:19:58;;;;;;;3.30;1.15;;;;;;;16.03;48.80;101233.03;4978309;28;20052;-80
2022/09/04 02:22:43;;;;;;;4.47;1.40;;;;;;;16.03;49.04;101238.34;5051069;28;20053;-80
2022/09/04 02:25:30;;;;;;;4.17;1.37;;;;;;;15.98;49.42;101232.47;5060523;28;20064;-80
2022/09/04 02:28:07;;;;;;;3.88;1.33;;;;;;;15.90;49.71;101234.88;5043933;28;20052;-78
2022/09/04 02:30:50;;;;;;;2.28;1.10;;;;;;;15.87;49.76;101229.75;5077305;28;20057;-79
2022/09/04 02:33:58;;;;;;;2.95;1.02;;;;;;;15.85;49.58;101234.31;5055154;28;20091;-79
2022/09/04 02:36:59;;;;;;;2.35;1.50;;;;;;;15.81;49.80;101233.72;5068761;28;20067;-80
2022/09/04 02:39:54;;;;;;;2.00;1.08;;;;;;;15.81;49.34;101233.72;5041577;28;20045;-78
2022/09/04 02:42:26;;;;;;;3.53;1.02;;;;;;;15.83;49.24;101233.59;5046811;28;20059;-79
2022/09/04 02:45:11;;;;;;;2.40;1.23;;;;;;;15.81;49.09;101233.72;5074307;28;20059;-79
2022/09/04 02:47:55;;;;;;;2.30;1.30;;;;;;;15.76;50.29;101232.31;5074670;28;20055;-80
2022/09/04 02:50:59;;;;;;;2.15;1.08;;;;;;;15.73;49.93;101229.91;5061634;28;20123;-80
2022/09/04 02:53:51;;;;;;;3.50;1.05;;;;;;;15.73;49.40;101245.84;5060530;28;20054;-80
2022/09/04 02:56:46;;;;;;;1.95;0.90;;;;;;;15.75;49.33;101235.94;5045863;28;20167;-79
2022/09/04 02:59:35;;;;;;;3.55;1.20;;;;;;;15.76;49.17;101232.31;5060806;28;20375;-78
2022/09/04 03:02:05;;;;;;;2.13;1.00;;;;;;;15.76;49.52;101241.16;5059417;28;20182;-79
2022/09/04 03:04:48;;;;;;;1.63;1.17;;;;;;;15.69;49.57;101237.22;5042315;28;20048;-79
2022/09/04 03:07:38;;;;;;;2.55;1.00;;;;;;;15.70;49.88;101239.75;5046180;28;20641;-78
2022/09/04 03:10:10;;;;;;;2.72;1.02;;;;;;;15.64;49.37;101234.06;5041430;28;20037;-79
2022/09/04 03:13:02;;;;;;;2.17;1.23;;;;;;;15.65;49.77;101236.59;5023661;28;20080;-79
2022/09/04 03:15:45;;;;;;;1.88;0.80;;;;;;;15.59;49.43;101229.03;5011936;28;20047;-78
2022/09/04 03:18:50;;;;;;;3.88;1.48;;;;;;;15.57;49.73;101235.41;5044603;28;20062;-79
2022/09/04 03:21:26;;;;;;;1.75;1.10;;;;;;;15.57;49.30;101230.09;5072996;28;20047;-80
2022/09/04 03:23:58;;;;;;;1.88;1.00;;;;;;;15.56;49.80;101237.19;5061461;28;20131;-80
2022/09/04 03:26:30;;;;;;;4.53;1.20;;;;;;;15.50;50.08;101235.00;5047600;28;20029;-79
2022/09/04 03:29:08;;;;;;;6.95;1.35;;;;;;;15.47;49.87;101237.84;5039173;28;20153;-79
2022/09/04 03:31:54;;;;;;;4.60;1.27;;;;;;;15.50;49.74;101242.94;5052743;28;20063;-79
2022/09/04 03:34:35;;;;;;;3.35;1.10;;;;;;;15.54;49.70;101248.91;5064655;28;20084;-80
2022/09/04 03:37:27;;;;;;;1.88;1.15;;;;;;;15.56;49.49;101253.13;5027302;28;20045;-82
2022/09/04 03:39:57;;;;;;;2.33;1.20;;;;;;;15.53;49.52;101253.34;5068894;28;20048;-81
2022/09/04 03:42:39;;;;;;;2.28;1.50;;;;;;;15.49;49.33;101251.88;5065498;28;20060;-79
2022/09/04 03:45:09;;;;;;;2.78;1.27;;;;;;;15.41;50.00;101255.06;5049551;28;20063;-79
2022/09/04 03:47:46;;;;;;;6.50;1.63;;;;;;;15.35;51.06;101251.97;5062958;28;20072;-78
2022/09/04 03:50:19;;;;;;;1.35;0.90;;;;;;;15.30;49.97;101252.28;5043285;28;20083;-79
2022/09/04 03:52:49;;;;;;;2.92;1.15;;;;;;;15.28;50.01;101259.50;5079212;28;20115;-78
2022/09/04 03:55:24;;;;;;;3.80;1.00;;;;;;;15.28;49.92;101262.16;5063784;28;20060;-79
2022/09/04 03:58:09;;;;;;;2.17;1.27;;;;;;;15.24;50.58;101258.00;5016568;28;20040;-79
2022/09/04 04:00:55;;;;;;;1.40;0.98;;;;;;;15.18;50.74;101250.47;5045614;28;20084;-79
2022/09/04 04:03:30;;;;;;;2.60;1.20;;;;;;;15.10;51.27;101260.75;5043758;28;20059;-79
2022/09/04 04:06:22;;;;;;;3.58;1.10;;;;;;;15.05;51.42;101265.53;5050591;28;20342;-80
2022/09/04 04:09:03;;;;;;;4.70;1.17;;;;;;;15.01;50.97;101261.38;5076350;28;20044;-79
2022/09/04 04:11:44;;;;;;;1.75;1.00;;;;;;;14.97;51.21;101270.50;5032671;28;20047;-79
2022/09/04 04:14:29;;;;;;;3.72;1.00;;;;;;;14.95;51.08;101267.94;5062925;28;20462;-79
2022/09/04 04:17:04;;;;;;;3.35;1.48;;;;;;;14.95;50.91;101275.91;5059525;28;20105;-78
2022/09/04 04:20:13;;;;;;;3.83;1.40;;;;;;;14.94;50.93;101276.84;5069277;28;20109;-78
2022/09/04 04:23:36;;;;;;;2.00;1.10;;;;;;;14.88;51.54;101275.44;5039168;28;20083;-80
2022/09/04 04:26:30;;;;;;;4.13;1.13;;;;;;;14.78;51.13;101271.72;5011531;28;20039;-79
2022/09/04 04:29:37;;;;;;;1.20;0.90;;;;;;;14.79;51.75;101280.50;5052620;28;20057;-80
2022/09/04 04:32:13;;;;;;;2.55;1.23;;;;;;;14.78;51.80;101279.66;5059775;28;20142;-81
2022/09/04 04:34:57;;;;;;;4.72;1.10;;;;;;;14.79;51.36;101283.16;5078330;28;20052;-81
2022/09/04 04:37:35;;;;;;;5.03;1.63;;;;;;;14.80;51.90;101277.75;5044778;28;20068;-81
2022/09/04 04:40:14;;;;;;;4.40;1.10;;;;;;;14.81;51.20;101290.03;5043154;28;20052;-80
2022/09/04 04:42:53;;;;;;;4.78;1.42;;;;;;;14.80;52.12;101280.41;5059913;28;20058;-79
2022/09/04 04:45:49;;;;;;;1.80;1.02;;;;;;;14.73;52.17;101289.72;5044500;28;20082;-79
2022/09/04 04:48:39;;;;;;;4.10;1.50;;;;;;;14.76;51.12;101288.66;5059493;28;20063;-79
2022/09/04 04:51:39;;;;;;;1.88;1.10;;;;;;;14.75;51.09;101293.13;5059838;28;20054;-80
2022/09/04 04:54:28;;;;;;;1.73;1.08;;;;;;;14.68;51.61;101299.78;5077686;28;20060;-80
2022/09/04 04:57:26;;;;;;;3.10;0.93;;;;;;;14.66;51.51;101301.66;5049665;28;20087;-80
2022/09/04 05:00:18;;;;;;;4.35;1.20;;;;;;;14.69;51.19;101304.97;5061237;28;20196;-81
2022/09/04 05:03:31;;;;;;;1.75;0.75;;;;;;;14.69;51.77;101302.31;5059759;28;20108;-79
2022/09/04 05:06:13;;;;;;;4.18;1.40;;;;;;;14.60;52.06;101310.88;5061393;28;20040;-80
2022/09/04 05:09:08;;;;;;;3.70;1.30;;;;;;;14.56;52.39;101316.47;5050816;28;20058;-81
2022/09/04 05:11:53;;;;;;;5.55;1.40;;;;;;;14.50;52.92;101325.66;5073068;28;20028;-78
2022/09/04 05:14:59;;;;;;;2.27;0.90;;;;;;;14.49;52.46;101329.25;5075082;28;20121;-79
2022/09/04 05:17:39;;;;;;;1.85;1.38;;;;;;;14.48;52.47;101338.16;5026309;28;20089;-79
2022/09/04 05:20:31;;;;;;;2.15;1.20;;;;;;;14.49;52.90;101352.25;5031707;28;20108;-79
2022/09/04 05:23:11;;;;;;;9.05;1.10;;;;;;;14.50;52.35;101340.69;5068133;28;20055;-80
2022/09/04 05:25:51;;;;;;;2.50;1.38;;;;;;;14.57;51.79;101357.91;5046459;28;20136;-78
2022/09/04 05:28:45;;;;;;;3.83;1.20;;;;;;;14.60;51.89;101352.44;5063323;28;20052;-79
2022/09/04 05:31:19;;;;;;;2.97;1.15;;;;;;;14.60;52.77;101363.03;5060386;28;20057;-81
2022/09/04 05:34:00;;;;;;;1.67;1.00;;;;;;;14.58;52.34;101360.44;5081641;28;20048;-79
2022/09/04 05:36:44;;;;;;;1.52;1.00;;;;;;;14.61;52.70;101370.03;5069719;28;20044;-80
2022/09/04 05:39:31;;;;;;;2.83;1.30;;;;;;;14.59;52.43;101375.44;5057552;28;20104;-77
2022/09/04 05:42:36;;;;;;;3.22;1.25;;;;;;;14.67;51.88;101380.22;5037340;28;20418;-78
2022/09/04 05:45:23;;;;;;;4.22;1.30;;;;;;;14.67;52.53;101381.06;5055332;28;20028;-79
2022/09/04 05:48:18;;;;;;;2.35;1.40;;;;;;;14.69;52.86;101379.19;5049889;28;20112;-78
2022/09/04 05:50:45;;;;;;;2.83;1.13;;;;;;;14.67;52.79;101383.72;5061960;28;20128;-79
2022/09/04 05:53:50;;;;;;;3.90;1.33;;;;;;;14.76;52.39;101392.03;5084695;28;20056;-78
2022/09/04 05:56:20;;;;;;;4.95;1.38;;;;;;;14.83;52.19;101396.84;5068353;28;20053;-79
2022/09/04 05:59:04;;;;;;;3.63;1.80;;;;;;;14.84;52.70;101398.53;5049335;28;20055;-79
2022/09/04 06:01:50;;;;;;;3.90;1.77;;;;;;;14.81;52.08;101398.72;5060545;28;20514;-79
2022/09/04 06:04:43;;;;;;;2.58;1.02;;;;;;;14.85;52.37;101394.94;5051745;28;20049;-80
2022/09/04 06:07:13;;;;;;;2.22;1.10;;;;;;;14.89;51.62;101396.44;5039327;28;20048;-79
2022/09/04 06:09:47;;;;;;;1.88;1.10;;;;;;;14.96;52.12;101404.88;5068359;28;20059;-80
2022/09/04 06:12:35;;;;;;;2.80;1.33;;;;;;;15.02;51.96;101406.25;5049159;28;20049;-79
2022/09/04 06:15:24;;;;;;;1.95;1.10;;;;;;;15.06;51.45;101408.59;5051525;28;20068;-79
2022/09/04 06:18:11;;;;;;;3.80;1.35;;;;;;;15.07;51.92;101404.16;5053362;28;20044;-79
2022/09/04 06:20:50;;;;;;;2.05;1.25;;;;;;;15.11;52.61;101405.66;5074325;28;20053;-79
2022/09/04 06:23:36;;;;;;;3.45;1.13;;;;;;;15.18;52.13;101415.78;5037394;28;20052;-78
2022/09/04 06:26:21;;;;;;;;;;;;;;;15.30;52.35;101405.28;5080912;28;20036;-80
2022/09/04 06:29:03;;;;;;;4.22;1.85;;;;;;;15.41;51.38;101408.09;5057308;28;19931;-78
2022/09/04 06:31:35;;;;;;;4.28;1.63;;;;;;;15.46;50.85;101400.66;5076833;28;20040;-78
2022/09/04 06:34:09;;;;;;;5.05;1.85;;;;;;;15.53;51.13;101412.56;5076285;28;20044;-78
2022/09/04 06:36:55;;;;;;;4.15;1.70;;;;;;;15.56;51.60;101409.69;5037559;28;20064;-78
2022/09/04 06:39:43;;;;;;;4.00;1.52;;;;;;;15.58;51.32;101412.25;5059556;28;20059;-80
2022/09/04 06:42:24;;;;;;;3.88;1.25;;;;;;;15.58;51.19;101413.13;5070720;28;20121;-78
2022/09/04 06:45:25;;;;;;;8.32;1.88;;;;;;;15.56;51.72;101419.47;5056701;28;20127;-78
2022/09/04 06:48:21;;;;;;;3.28;1.65;;;;;;;15.59;51.26;101414.81;5058858;28;20127;-78
2022/09/04 06:50:55;;;;;;;4.97;1.67;;;;;;;15.65;51.29;101417.06;5066796;28;20045;-78
2022/09/04 06:53:38;;;;;;;3.60;1.52;;;;;;;15.70;50.95;101422.94;5039919;28;20044;-79
2022/09/04 06:56:34;;;;;;;3.65;1.60;;;;;;;15.77;51.13;101428.69;5056613;28;20045;-78
2022/09/04 06:59:26;;;;;;;7.78;1.80;;;;;;;15.83;51.46;101425.59;5063176;28;20032;-78
2022/09/04 07:02:06;;;;;;;3.88;1.98;;;;;;;15.91;51.50;101427.75;5066841;28;20140;-79
2022/09/04 07:04:49;;;;;;;2.53;1.60;;;;;;;15.91;52.09;101425.09;5059201;28;20590;-78
2022/09/04 07:07:25;;;;;;;6.82;2.00;;;;;;;15.91;52.12;101431.25;5069335;28;20056;-79
2022/09/04 07:10:04;;;;;;;4.30;1.88;;;;;;;15.99;51.59;101440.50;5048830;28;20076;-78
2022/09/04 07:13:07;;;;;;;2.95;2.17;;;;;;;16.07;52.15;101439.00;5068365;28;20041;-79
2022/09/04 07:16:10;;;;;;;2.80;1.63;;;;;;;16.16;51.80;101445.47;5064535;28;20060;-79
2022/09/04 07:18:50;;;;;;;7.10;2.35;;;;;;;16.22;52.28;101442.41;5053778;28;20063;-79
2022/09/04 07:21:34;;;;;;;4.55;1.70;;;;;;;16.26;51.90;101449.22;5059523;28;20061;-79
2022/09/04 07:24:07;;;;;;;3.60;1.85;;;;;;;16.32;51.51;101434.66;5051028;28;20493;-79
2022/09/04 07:27:14;;;;;;;4.75;1.67;;;;;;;16.38;51.26;101442.19;5058408;28;20095;-78
2022/09/04 07:29:47;;;;;;;5.88;3.00;;;;;;;16.45;51.35;101440.78;5018730;28;20042;-79
2022/09/04 07:32:21;;;;;;;5.32;2.00;;;;;;;16.53;51.91;101451.75;5023917;28;20053;-78
2022/09/04 07:34:59;;;;;;;7.07;1.70;;;;;;;16.56;51.64;101446.19;5038291;28;20628;-79
2022/09/04 07:37:38;;;;;;;3.50;1.80;;;;;;;16.63;51.34;101446.63;5051421;28;20052;-79
2022/09/04 07:40:13;;;;;;;4.63;2.47;;;;;;;16.74;51.14;101452.03;5050977;28;20040;-78
2022/09/04 07:42:49;;;;;;;3.55;2.08;;;;;;;16.82;52.75;101444.34;5051588;28;20119;-78
2022/09/04 07:45:37;;;;;;;;;;;;;;;16.88;52.84;101443.91;5034676;28;20043;-79
2022/09/04 07:48:34;;;;;;;2.90;2.10;;;;;;;16.99;52.65;101452.94;5087190;28;19924;-79
2022/09/04 07:51:24;;;;;;;2.83;1.70;;;;;;;17.06;53.06;101457.69;5066572;28;20064;-79
2022/09/04 07:54:16;;;;;;;7.35;2.10;;;;;;;17.13;53.63;101458.09;5064552;28;20099;-80
2022/09/04 07:56:57;;;;;;;5.13;1.83;;;;;;;17.21;52.24;101456.56;5053204;28;20064;-79
2022/09/04 07:59:49;;;;;;;3.55;2.05;;;;;;;17.30;52.46;101455.06;5060540;28;20076;-78
2022/09/04 08:02:55;;;;;;;4.40;1.85;;;;;;;17.40;52.87;101464.03;5057002;28;20055;-79
2022/09/04 08:05:30;;;;;;;4.70;2.65;;;;;;;17.53;52.56;101463.13;5079746;28;20053;-79
2022/09/04 08:08:06;;;;;;;3.28;1.77;;;;;;;17.58;52.93;101475.13;5066987;28;20060;-79
2022/09/04 08:11:12;;;;;;;4.75;2.33;;;;;;;17.63;52.92;101472.97;5084219;28;20503;-79
2022/09/04 08:14:01;;;;;;;5.22;2.17;;;;;;;17.69;52.73;101480.47;5077321;28;20037;-79
2022/09/04 08:16:49;;;;;;;5.97;2.10;;;;;;;17.79;52.64;101471.88;5070735;28;20066;-79
2022/09/04 08:19:40;;;;;;;3.10;2.20;;;;;;;17.92;52.51;101477.94;5072973;28;20067;-79
2022/09/04 08:22:12;;;;;;;4.80;2.20;;;;;;;18.02;52.85;101475.44;5041134;28;20093;-81
2022/09/04 08:24:52;;;;;;;4.30;2.00;;;;;;;18.12;52.41;101471.94;5065679;28;20063;-80
2022/09/04 08:27:41;;;;;;;7.50;2.08;;;;;;;18.21;52.34;101473.03;5079456;28;20063;-79
2022/09/04 08:30:13;;;;;;;2.97;1.88;;;;;;;18.29;52.34;101473.28;5074647;22;20060;-68
2022/09/04 08:32:52;;;;;;;7.53;2.80;;;;;;;18.38;52.37;101477.91;5081857;28;20070;-68
2022/09/04 08:35:53;;;;;;;4.60;2.25;;;;;;;18.47;51.94;101476.34;5076479;28;20053;-68
2022/09/04 08:38:39;;;;;;;3.55;2.28;;;;;;;18.56;52.25;101480.94;5054503;28;20052;-67
2022/09/04 08:41:12;;;;;;;3.17;1.75;;;;;;;18.62;51.67;101479.59;5068806;28;20409;-68
2022/09/04 08:44:08;;;;;;;3.90;2.20;;;;;;;18.70;52.29;101483.41;5061874;28;20057;-68
2022/09/04 08:47:16;;;;;;;7.90;2.58;;;;;;;18.80;52.29;101486.19;5068543;28;20052;-68
2022/09/04 08:50:11;;;;;;;4.47;2.58;;;;;;;18.91;51.72;101483.50;5068372;28;20242;-67
2022/09/04 08:52:44;;;;;;;6.18;2.03;;;;;;;18.99;51.63;101482.88;5046371;28;20056;-68
2022/09/04 08:55:49;;;;;;;3.00;2.15;;;;;;;19.08;51.52;101482.13;5069819;28;20048;-68
2022/09/04 08:58:37;;;;;;;4.72;2.05;;;;;;;19.19;51.51;101483.94;5062906;28;20062;-68
2022/09/04 09:01:29;;;;;;;3.33;2.10;;;;;;;19.26;51.27;101482.44;5060918;28;20497;-68
2022/09/04 09:04:13;;;;;;;9.25;3.00;;;;;;;19.36;51.08;101483.41;5062242;28;20052;-68
2022/09/04 09:07:05;;;;;;;5.18;2.20;;;;;;;19.42;51.42;101492.72;5044066;28;20044;-68
2022/09/04 09:09:46;;;;;;;5.53;2.40;;;;;;;19.52;51.07;101496.31;5067496;28;20068;-68
2022/09/04 09:12:30;;;;;;;3.03;2.20;;;;;;;19.62;50.95;101491.94;5031140;28;20444;-68
2022/09/04 09:15:12;;;;;;;5.28;2.33;;;;;;;19.70;50.71;101484.13;5066401;28;20063;-68
2022/09/04 09:18:02;;;;;;;5.03;2.30;;;;;;;19.82;50.63;101476.09;5050775;28;20053;-68
2022/09/04 09:20:53;;;;;;;3.40;2.10;;;;;;;19.88;50.62;101476.41;5046854;28;20052;-68
2022/09/04 09:23:36;;;;;;;2.55;1.52;;;;;;;19.97;50.17;101480.97;5048478;28;20050;-68
2022/09/04 09:26:25;;;;;;;3.97;2.00;;;;;;;20.04;49.86;101473.28;5048753;28;20041;-68
2022/09/04 09:28:55;;;;;;;3.42;2.00;;;;;;;20.12;49.73;101470.78;5068896;28;20048;-68
2022/09/04 09:31:44;;;;;;;5.85;2.05;;;;;;;20.20;49.41;101478.16;5059786;28;20049;-68
2022/09/04 09:34:52;;;;;;;4.00;2.15;;;;;;;20.25;48.93;101483.94;5063187;28;20063;-68
2022/09/04 09:37:32;;;;;;;3.40;1.80;;;;;;;20.32;49.06;101478.94;5058836;28;20049;-67
2022/09/04 09:40:12;;;;;;;3.70;1.70;;;;;;;20.35;49.16;101482.16;5050458;28;20056;-67
2022/09/04 09:42:58;;;;;;;3.70;2.08;;;;;;;20.45;48.99;101475.06;5070376;28;20269;-67
2022/09/04 09:45:53;;;;;;;3.83;2.15;;;;;;;20.53;49.44;101479.75;5059289;28;20072;-67
2022/09/04 09:48:53;;;;;;;3.30;1.75;;;;;;;20.60;49.04;101474.72;5063028;28;20055;-67
2022/09/04 09:51:59;;;;;;;2.40;1.67;;;;;;;20.65;48.88;101476.00;5066370;28;20049;-67
2022/09/04 09:54:51;;;;;;;3.22;2.00;;;;;;;20.72;48.05;101473.66;5043635;28;20389;-68
2022/09/04 09:57:40;;;;;;;5.82;1.98;;;;;;;20.80;48.18;101472.94;5058131;28;20448;-67
2022/09/04 10:00:13;;;;;;;3.42;1.90;;;;;;;20.88;48.15;101465.09;5062143;28;20072;-67
2022/09/04 10:03:19;;;;;;;3.75;2.05;;;;;;;20.93;48.07;101466.34;5033355;28;20062;-67
2022/09/04 10:06:11;;;;;;;5.50;2.13;;;;;;;21.01;47.45;101465.69;5056966;28;20063;-67
2022/09/04 10:09:04;;;;;;;3.15;1.88;;;;;;;21.07;47.40;101467.78;5050400;28;20404;-67
2022/09/04 10:11:58;;;;;;;3.45;2.17;;;;;;;21.13;48.00;101463.75;5059187;28;20057;-67
2022/09/04 10:14:49;;;;;;;2.78;1.80;;;;;;;21.21;47.75;101472.78;5065008;28;20056;-68
2022/09/04 10:17:47;;;;;;;2.72;1.70;;;;;;;21.30;47.47;101470.22;5066248;28;20045;-68
2022/09/04 10:20:39;;;;;;;5.45;2.00;;;;;;;21.40;47.14;101461.28;5049075;22;20064;-59
2022/09/04 10:23:27;;;;;;;5.85;2.08;;;;;;;21.47;47.34;101458.84;5023552;28;20049;-61
2022/09/04 10:26:12;;;;;;;5.30;2.28;;;;;;;21.55;46.85;101469.72;5011719;28;20050;-61
2022/09/04 10:29:08;;;;;;;13.10;2.70;;;;;;;21.65;46.55;101475.06;5024209;28;20061;-61
2022/09/04 10:31:35;;;;;;;;;;;;;;;21.72;46.35;101471.69;5027025;28;20487;-61
2022/09/04 10:34:37;;;;;;;3.65;1.90;;;;;;;21.80;46.26;101471.00;5024645;28;20317;-59
2022/09/04 10:37:13;;;;;;;2.97;1.73;;;;;;;21.91;46.30;101478.03;5004540;28;20176;-58
2022/09/04 10:43:21;;;;;;;2.72;1.80;;;;;;;22.14;45.82;101475.88;5015669;28;20409;-61
2022/09/04 10:45:59;;;;;;;3.83;1.52;;;;;;;22.22;45.58;101484.06;5020457;28;20050;-61
2022/09/04 10:49:02;;;;;;;4.75;1.98;;;;;;;22.29;45.00;101479.81;5022792;28;20582;-59
2022/09/04 10:51:55;;;;;;;2.35;1.60;;;;;;;22.38;44.99;101488.81;5010974;28;20053;-62
2022/09/04 10:54:55;;;;;;;5.40;1.95;;;;;;;22.50;44.43;101479.59;5018648;28;20065;-61
2022/09/04 10:57:42;;;;;;;2.30;1.40;;;;;;;22.60;44.26;101479.53;5023582;28;20053;-61
2022/09/04 11:00:17;;;;;;;3.50;1.60;;;;;;;22.74;44.26;101492.50;5019254;28;20064;-61
2022/09/04 11:03:03;;;;;;;2.90;1.67;;;;;;;22.85;43.64;101480.72;5013418;28;20053;-61
2022/09/04 11:05:31;;;;;;;;;;;;;;;22.95;43.67;101484.22;5016889;28;20058;-61
2022/09/04 11:08:24;;;;;;;4.28;2.05;;;;;;;23.05;43.22;101484.16;5026578;28;20003;-61
2022/09/04 11:11:02;;;;;;;2.42;1.58;;;;;;;23.12;43.79;101486.09;5029877;28;20069;-61
2022/09/04 11:14:06;;;;;;;4.60;2.00;;;;;;;23.24;42.80;101487.56;5006978;28;20060;-61
2022/09/04 11:16:53;;;;;;;3.20;2.08;;;;;;;23.35;42.81;101485.66;5026247;28;20054;-61
2022/09/04 11:20:03;;;;;;;6.72;1.98;;;;;;;23.51;42.03;101491.19;5021088;28;20061;-61
2022/09/04 11:22:54;;;;;;;2.17;1.40;;;;;;;23.66;41.62;101497.75;5027618;28;20415;-61
2022/09/04 11:25:37;;;;;;;2.80;1.80;;;;;;;23.80;41.50;101490.97;5032856;28;20059;-62
2022/09/04 11:28:43;;;;;;;2.53;1.60;;;;;;;23.94;41.38;101471.56;5024966;28;20053;-62
2022/09/04 11:31:28;;;;;;;1.90;1.60;;;;;;;24.02;41.22;101484.25;5021857;28;20057;-61
2022/09/04 11:34:12;;;;;;;4.28;1.80;;;;;;;24.16;40.54;101474.75;5024465;28;20050;-61
2022/09/04 11:37:14;;;;;;;4.28;1.80;;;;;;;24.29;40.24;101479.72;5024351;28;20068;-62
2022/09/04 11:39:46;;;;;;;2.95;1.83;;;;;;;24.41;39.90;101470.41;5012947;28;20054;-61
2022/09/04 11:42:34;;;;;;;2.05;1.65;;;;;;;24.55;40.13;101464.41;5014219;28;20088;-61
2022/09/04 11:45:40;;;;;;;5.65;2.13;;;;;;;24.79;39.48;101470.91;5012258;28;20061;-61
2022/09/04 11:48:36;;;;;;;3.28;1.50;;;;;;;24.94;38.78;101463.88;5012873;28;20052;-62
2022/09/04 11:51:33;;;;;;;3.78;2.00;;;;;;;25.07;38.90;101458.03;5024463;28;20383;-59
2022/09/04 11:54:29;;;;;;;3.47;2.03;;;;;;;25.22;38.96;101457.25;5015117;28;20438;-61
2022/09/04 11:57:21;;;;;;;3.65;1.70;;;;;;;25.33;38.65;101450.69;5009725;28;20065;-61
2022/09/04 12:00:16;;;;;;;3.97;1.80;;;;;;;25.52;37.79;101453.06;5013003;28;20067;-61
2022/09/04 12:03:10;;;;;;;4.78;1.77;;;;;;;25.73;37.48;101455.25;5009868;28;20132;-60
2022/09/04 12:05:53;;;;;;;4.40;1.80;;;;;;;25.76;37.50;101451.41;5026235;28;20080;-60
2022/09/04 12:08:45;;;;;;;5.53;2.42;;;;;;;25.80;37.49;101441.94;5011647;28;20073;-57
2022/09/04 12:11:40;;;;;;;3.55;1.92;;;;;;;26.03;36.90;101447.50;5024138;28;20534;-60
2022/09/04 12:14:39;;;;;;;3.05;2.00;;;;;;;26.11;37.43;101449.31;5011914;28;20417;-61
2022/09/04 12:17:24;;;;;;;2.97;1.95;;;;;;;26.14;37.33;101444.44;5021223;28;20046;-61
2022/09/04 12:20:00;;;;;;;3.80;1.90;;;;;;;26.33;36.83;101442.34;5023487;28;20061;-62
2022/09/04 12:23:01;;;;;;;4.15;1.98;;;;;;;26.46;36.19;101445.38;5022036;28;20053;-61
2022/09/04 12:25:34;;;;;;;3.90;2.13;;;;;;;26.76;35.58;101444.59;5022628;28;20058;-61
2022/09/04 12:28:25;;;;;;;5.25;2.30;;;;;;;27.01;35.50;101447.97;5028909;28;20057;-62
2022/09/04 12:31:07;;;;;;;3.80;2.17;;;;;;;27.27;35.04;101453.06;5016107;28;20049;-61
2022/09/04 12:34:07;;;;;;;6.00;1.95;;;;;;;27.57;34.75;101452.38;5024995;28;20058;-60
2022/09/04 12:37:00;;;;;;;2.70;1.77;;;;;;;27.72;35.12;101454.09;5025989;28;20054;-61
2022/09/04 12:39:56;;;;;;;4.65;1.80;;;;;;;27.97;34.20;101445.78;5024463;28;20054;-61
2022/09/04 12:42:44;;;;;;;4.88;2.38;;;;;;;28.29;33.60;101447.28;4983082;28;20132;-58
2022/09/04 12:45:23;;;;;;;3.35;1.90;;;;;;;28.54;33.51;101453.25;5029151;28;20059;-61
2022/09/04 12:48:19;;;;;;;5.05;2.30;;;;;;;28.77;32.57;101450.44;5006948;28;20057;-58
2022/09/04 12:51:15;;;;;;;2.80;1.80;;;;;;;28.96;33.26;101449.88;5028046;28;20061;-62
2022/09/04 12:53:53;;;;;;;3.40;2.35;;;;;;;29.20;32.78;101445.13;5027705;28;20049;-60
2022/09/04 12:56:25;;;;;;;3.30;2.28;;;;;;;29.52;31.98;101449.16;5009444;28;20054;-60
2022/09/04 12:59:24;;;;;;;4.57;1.92;;;;;;;29.39;32.35;101454.47;5021640;28;20528;-60
2022/09/04 13:02:20;;;;;;;5.53;1.95;;;;;;;29.50;32.43;101448.53;5001710;28;20054;-61
2022/09/04 13:05:01;;;;;;;2.13;1.75;;;;;;;29.96;31.01;101445.38;5011310;28;20049;-61